createdAt,value
2023-01-10T00:02:00.462Z,98715.42
2023-01-10T00:04:32.182Z,98722.23
2023-01-10T00:07:03.846Z,98720.33
2023-01-10T00:09:35.480Z,98708.81
2023-01-10T00:12:25.789Z,98709.33
2023-01-10T00:14:57.495Z,98709.02
2023-01-10T00:17:29.210Z,98706.75
2023-01-10T00:20:00.914Z,98715.13
2023-01-10T00:22:32.637Z,98712.50
2023-01-10T00:25:04.827Z,98712.16
2023-01-10T00:27:36.657Z,98715.54
2023-01-10T00:30:17.877Z,98713.53
2023-01-10T00:32:49.567Z,98712.73
2023-01-10T00:35:21.396Z,98718.45
2023-01-10T00:37:57.998Z,98723.33
2023-01-10T00:40:29.725Z,98732.45
2023-01-10T00:43:20.320Z,98738.08
2023-01-10T00:45:51.938Z,98742.02
2023-01-10T00:48:24.056Z,98747.71
2023-01-10T00:50:56.073Z,98750.96
2023-01-10T00:53:27.856Z,98770.20
2023-01-10T00:55:59.530Z,98772.66
2023-01-10T00:58:31.131Z,98789.42
2023-01-10T01:01:02.862Z,98792.50
2023-01-10T01:03:34.577Z,98797.31
2023-01-10T01:06:07.733Z,98801.94
2023-01-10T01:08:39.379Z,98805.55
2023-01-10T01:11:11.170Z,98813.27
2023-01-10T01:13:42.835Z,98814.61
2023-01-10T01:16:14.620Z,98819.44
2023-01-10T01:18:46.375Z,98819.19
2023-01-10T01:21:18.574Z,98819.89
2023-01-10T01:23:51.289Z,98821.30
2023-01-10T01:26:24.461Z,98822.23
2023-01-10T01:28:56.246Z,98828.27
2023-01-10T01:31:27.901Z,98832.32
2023-01-10T01:33:59.720Z,98836.34
2023-01-10T01:36:31.372Z,98827.66
2023-01-10T01:39:04.147Z,98832.72
2023-01-10T01:41:54.536Z,98831.05
2023-01-10T01:45:24.862Z,98831.02
2023-01-10T01:48:24.938Z,98827.52
2023-01-10T01:51:11.234Z,98832.52
2023-01-10T01:54:15.412Z,98843.52
2023-01-10T01:57:06.561Z,98843.25
2023-01-10T01:59:44.916Z,98846.30
2023-01-10T02:02:28.984Z,98853.73
2023-01-10T02:05:04.009Z,98856.02
2023-01-10T02:07:38.933Z,98860.23
2023-01-10T02:10:52.899Z,98868.15
2023-01-10T02:13:26.896Z,98865.97
2023-01-10T02:15:58.708Z,98867.27
2023-01-10T02:18:30.564Z,98869.17
2023-01-10T02:21:07.816Z,98869.03
2023-01-10T02:23:58.601Z,98876.05
2023-01-10T02:26:59.035Z,98878.17
2023-01-10T02:30:03.545Z,98885.59
2023-01-10T02:33:00.547Z,98890.08
2023-01-10T02:35:57.068Z,98893.23
2023-01-10T02:38:50.858Z,98892.63
2023-01-10T02:41:40.984Z,98897.17
2023-01-10T02:44:44.898Z,98890.58
2023-01-10T02:47:59.034Z,98892.96
2023-01-10T02:50:50.553Z,98889.44
2023-01-10T02:53:25.354Z,98894.09
2023-01-10T02:56:09.732Z,98896.44
2023-01-10T02:58:50.742Z,98901.27
2023-01-10T03:01:37.916Z,98904.16
2023-01-10T03:04:42.144Z,98906.33
2023-01-10T03:08:00.141Z,98916.16
2023-01-10T03:11:16.555Z,98909.18
2023-01-10T03:14:30.819Z,98924.57
2023-01-10T03:17:24.973Z,98916.80
2023-01-10T03:20:39.012Z,98925.88
2023-01-10T03:23:38.711Z,98936.42
2023-01-10T03:26:29.741Z,98944.08
2023-01-10T03:29:11.544Z,98946.29
2023-01-10T03:32:06.051Z,98945.72
2023-01-10T03:34:59.435Z,98946.59
2023-01-10T03:38:06.393Z,98949.50
2023-01-10T03:40:52.810Z,98938.70
2023-01-10T03:44:08.278Z,98949.84
2023-01-10T03:46:49.818Z,98950.17
2023-01-10T03:50:21.722Z,98956.00
2023-01-10T03:52:54.525Z,98965.55
2023-01-10T03:55:31.261Z,98961.43
2023-01-10T03:58:13.637Z,98973.34
2023-01-10T04:00:45.768Z,98983.54
2023-01-10T04:03:17.746Z,98982.58
2023-01-10T04:05:49.945Z,98986.45
2023-01-10T04:08:22.175Z,98983.48
2023-01-10T04:10:54.062Z,99001.19
2023-01-10T04:13:26.030Z,99000.32
2023-01-10T04:16:02.366Z,99009.27
2023-01-10T04:18:34.615Z,99016.54
2023-01-10T04:21:07.477Z,99029.09
2023-01-10T04:23:39.381Z,99036.39
2023-01-10T04:26:11.810Z,99039.50
2023-01-10T04:28:43.482Z,99036.64
2023-01-10T04:31:15.680Z,99035.09
2023-01-10T04:33:47.842Z,99047.11
2023-01-10T04:36:21.491Z,99048.92
2023-01-10T04:38:53.617Z,99058.79
2023-01-10T04:41:30.318Z,99073.36
2023-01-10T04:44:02.127Z,99073.35
2023-01-10T04:46:59.140Z,99080.17
2023-01-10T04:49:32.160Z,99086.30
2023-01-10T04:52:04.271Z,99091.00
2023-01-10T04:54:36.656Z,99093.52
2023-01-10T04:57:08.331Z,99098.66
2023-01-10T04:59:40.057Z,99111.42
2023-01-10T05:02:11.901Z,99112.76
2023-01-10T05:04:43.873Z,99121.73
2023-01-10T05:07:15.627Z,99126.54
2023-01-10T05:09:47.497Z,99131.55
2023-01-10T05:12:19.185Z,99131.73
2023-01-10T05:14:50.903Z,99131.38
2023-01-10T05:17:22.570Z,99131.72
2023-01-10T05:19:54.825Z,99135.36
2023-01-10T05:22:26.533Z,99134.84
2023-01-10T05:24:58.136Z,99139.16
2023-01-10T05:27:29.896Z,99140.37
2023-01-10T05:30:01.611Z,99146.59
2023-01-10T05:32:33.275Z,99148.94
2023-01-10T05:35:05.907Z,99153.98
2023-01-10T05:37:38.203Z,99162.50
2023-01-10T05:40:11.252Z,99164.05
2023-01-10T05:42:43.122Z,99180.09
2023-01-10T05:45:15.173Z,99184.59
2023-01-10T05:47:48.974Z,99188.94
2023-01-10T05:50:20.647Z,99192.97
2023-01-10T05:52:52.423Z,99196.29
2023-01-10T05:55:24.142Z,99200.80
2023-01-10T05:57:55.801Z,99198.40
2023-01-10T06:00:28.069Z,99198.11
2023-01-10T06:02:59.792Z,99205.30
2023-01-10T06:05:31.862Z,99213.86
2023-01-10T06:08:03.665Z,99219.80
2023-01-10T06:10:38.069Z,99222.41
2023-01-10T06:13:09.948Z,99227.67
2023-01-10T06:15:44.831Z,99225.63
2023-01-10T06:18:19.287Z,99225.83
2023-01-10T06:20:51.250Z,99231.30
2023-01-10T06:23:30.472Z,99239.16
2023-01-10T06:26:02.128Z,99243.23
2023-01-10T06:28:36.231Z,99251.28
2023-01-10T06:31:08.916Z,99254.48
2023-01-10T06:33:41.713Z,99257.34
2023-01-10T06:36:13.460Z,99263.30
2023-01-10T06:38:45.223Z,99266.74
2023-01-10T06:41:17.009Z,99269.92
2023-01-10T06:43:51.806Z,99274.88
2023-01-10T06:46:26.020Z,99278.29
2023-01-10T06:48:57.604Z,99287.05
2023-01-10T06:51:31.551Z,99286.25
2023-01-10T06:54:03.351Z,99286.82
2023-01-10T06:56:37.670Z,99286.60
2023-01-10T06:59:12.528Z,99286.88
2023-01-10T07:01:44.469Z,99295.70
2023-01-10T07:04:16.284Z,99299.61
2023-01-10T07:06:48.077Z,99308.75
2023-01-10T07:09:20.137Z,99315.80
2023-01-10T07:11:51.896Z,99319.48
2023-01-10T07:14:23.649Z,99321.23
2023-01-10T07:16:57.909Z,99322.47
2023-01-10T07:19:29.668Z,99331.30
2023-01-10T07:22:01.230Z,99329.89
2023-01-10T07:24:35.908Z,99330.91
2023-01-10T07:27:09.965Z,99339.59
2023-01-10T07:29:41.669Z,99340.98
2023-01-10T07:32:13.536Z,99356.94
2023-01-10T07:34:48.152Z,99364.24
2023-01-10T07:37:20.146Z,99360.25
2023-01-10T07:39:56.312Z,99364.21
2023-01-10T07:42:28.039Z,99362.61
2023-01-10T07:44:59.695Z,99363.59
2023-01-10T07:47:31.801Z,99371.19
2023-01-10T07:50:06.700Z,99376.73
2023-01-10T07:52:40.860Z,99377.91
2023-01-10T07:55:12.865Z,99383.27
2023-01-10T07:57:45.039Z,99385.28
2023-01-10T08:00:19.094Z,99382.08
2023-01-10T08:02:54.963Z,99383.58
2023-01-10T08:05:26.949Z,99390.26
2023-01-10T08:08:07.635Z,99393.27
2023-01-10T08:10:42.721Z,99392.02
2023-01-10T08:13:18.910Z,99396.46
2023-01-10T08:15:52.076Z,99401.91
2023-01-10T08:18:24.632Z,99410.73
2023-01-10T08:20:56.274Z,99417.97
2023-01-10T08:23:28.420Z,99422.38
2023-01-10T08:26:00.204Z,99431.70
2023-01-10T08:28:34.540Z,99432.36
2023-01-10T08:31:10.381Z,99432.45
2023-01-10T08:33:42.109Z,99434.09
2023-01-10T08:36:18.848Z,99439.52
2023-01-10T08:38:51.248Z,99438.37
2023-01-10T08:41:23.231Z,99447.55
2023-01-10T08:43:54.970Z,99449.21
2023-01-10T08:46:27.079Z,99456.87
2023-01-10T08:48:58.943Z,99469.33
2023-01-10T08:51:31.977Z,99477.23
2023-01-10T08:54:07.277Z,99482.67
2023-01-10T08:56:41.992Z,99488.38
2023-01-10T08:59:13.815Z,99489.39
2023-01-10T09:01:47.980Z,99491.19
2023-01-10T09:04:19.702Z,99498.47
2023-01-10T09:06:51.426Z,99499.12
2023-01-10T09:09:23.408Z,99503.09
2023-01-10T09:11:55.134Z,99505.64
2023-01-10T09:14:29.071Z,99503.88
2023-01-10T09:17:00.859Z,99515.15
2023-01-10T09:19:33.092Z,99522.80
2023-01-10T09:22:04.856Z,99523.02
2023-01-10T09:24:38.327Z,99523.39
2023-01-10T09:27:11.541Z,99526.84
2023-01-10T09:29:43.372Z,99529.09
2023-01-10T09:32:15.578Z,99526.81
2023-01-10T09:34:49.563Z,99530.10
2023-01-10T09:37:21.231Z,99535.78
2023-01-10T09:39:53.102Z,99537.95
2023-01-10T09:42:42.460Z,99537.59
2023-01-10T09:45:26.517Z,99542.55
2023-01-10T09:48:05.540Z,99540.36
2023-01-10T09:50:53.611Z,99543.49
2023-01-10T09:53:30.251Z,99545.56
2023-01-10T09:56:07.923Z,99540.70
2023-01-10T09:58:39.911Z,99541.77
2023-01-10T10:01:23.572Z,99547.98
2023-01-10T10:04:15.396Z,99552.17
2023-01-10T10:06:53.803Z,99557.45
2023-01-10T10:09:31.514Z,99552.27
2023-01-10T10:12:24.764Z,99550.87
2023-01-10T10:14:56.501Z,99553.55
2023-01-10T10:17:40.258Z,99550.02
2023-01-10T10:20:32.176Z,99552.95
2023-01-10T10:23:26.972Z,99560.76
2023-01-10T10:25:58.546Z,99561.73
2023-01-10T10:28:55.153Z,99564.54
2023-01-10T10:31:40.674Z,99568.02
2023-01-10T10:34:49.360Z,99570.25
2023-01-10T10:37:39.326Z,99570.70
2023-01-10T10:40:14.275Z,99570.60
2023-01-10T10:42:51.018Z,99568.17
2023-01-10T10:45:36.711Z,99568.35
2023-01-10T10:48:30.676Z,99570.90
2023-01-10T10:51:02.264Z,99569.45
2023-01-10T10:53:34.619Z,99575.65
2023-01-10T10:56:15.257Z,99576.10
2023-01-10T10:58:53.871Z,99574.42
2023-01-10T11:01:27.079Z,99572.10
2023-01-10T11:04:02.531Z,99578.13
2023-01-10T11:06:38.672Z,99577.69
2023-01-10T11:09:12.643Z,99579.98
2023-01-10T11:11:47.598Z,99584.21
2023-01-10T11:14:49.558Z,99584.79
2023-01-10T11:17:29.599Z,99586.94
2023-01-10T11:20:17.156Z,99586.65
2023-01-10T11:22:55.195Z,99584.35
2023-01-10T11:25:26.986Z,99589.39
2023-01-10T11:28:06.422Z,99592.23
2023-01-10T11:30:38.216Z,99594.98
2023-01-10T11:33:22.133Z,99593.20
2023-01-10T11:36:00.488Z,99597.57
2023-01-10T11:38:35.560Z,99603.43
2023-01-10T11:41:19.260Z,99604.53
2023-01-10T11:43:51.574Z,99611.16
2023-01-10T11:46:25.897Z,99613.14
2023-01-10T11:49:08.244Z,99612.36
2023-01-10T11:51:47.589Z,99616.77
2023-01-10T11:54:32.867Z,99619.31
2023-01-10T11:57:19.042Z,99616.63
2023-01-10T11:59:54.032Z,99613.91
2023-01-10T12:02:37.348Z,99622.36
2023-01-10T12:05:23.768Z,99633.19
2023-01-10T12:08:08.053Z,99637.04
2023-01-10T12:10:44.479Z,99644.19
2023-01-10T12:13:17.507Z,99647.53
2023-01-10T12:15:49.938Z,99654.10
2023-01-10T12:18:21.707Z,99654.84
2023-01-10T12:20:54.487Z,99655.19
2023-01-10T12:23:30.750Z,99657.06
2023-01-10T12:26:11.494Z,99661.41
2023-01-10T12:28:53.738Z,99662.42
2023-01-10T12:31:29.481Z,99666.34
2023-01-10T12:34:07.800Z,99663.63
2023-01-10T12:36:49.478Z,99663.09
2023-01-10T12:39:33.965Z,99666.77
2023-01-10T12:42:29.569Z,99670.42
2023-01-10T12:45:23.771Z,99675.97
2023-01-10T12:48:02.281Z,99683.27
2023-01-10T12:50:40.361Z,99684.17
2023-01-10T12:53:25.634Z,99683.18
2023-01-10T12:56:04.418Z,99681.88
2023-01-10T12:58:44.649Z,99691.91
2023-01-10T13:01:24.576Z,99698.65
2023-01-10T13:04:04.504Z,99695.27
2023-01-10T13:06:45.596Z,99702.15
2023-01-10T13:09:23.698Z,99700.86
2023-01-10T13:12:05.580Z,99709.45
2023-01-10T13:14:45.219Z,99711.30
2023-01-10T13:17:29.383Z,99712.06
2023-01-10T13:20:16.189Z,99709.58
2023-01-10T13:22:53.172Z,99711.42
2023-01-10T13:25:39.604Z,99706.35
2023-01-10T13:28:22.798Z,99706.86
2023-01-10T13:31:02.519Z,99702.61
2023-01-10T13:33:57.638Z,99703.77
2023-01-10T13:36:37.955Z,99715.77
2023-01-10T13:39:40.829Z,99724.30
2023-01-10T13:42:45.515Z,99731.86
2023-01-10T13:45:29.104Z,99732.63
2023-01-10T13:48:03.596Z,99738.10
2023-01-10T13:50:42.238Z,99741.30
2023-01-10T13:53:15.077Z,99747.95
2023-01-10T13:55:56.507Z,99750.27
2023-01-10T13:59:00.675Z,99751.08
2023-01-10T14:01:56.825Z,99746.05
2023-01-10T14:04:37.703Z,99743.64
2023-01-10T14:07:25.882Z,99737.71
2023-01-10T14:10:05.039Z,99740.64
2023-01-10T14:12:57.967Z,99745.71
2023-01-10T14:15:39.919Z,99748.12
2023-01-10T14:18:23.127Z,99757.89
2023-01-10T14:21:03.171Z,99767.10
2023-01-10T14:23:38.840Z,99769.45
2023-01-10T14:26:29.801Z,99773.39
2023-01-10T14:29:14.123Z,99775.42
2023-01-10T14:31:53.065Z,99778.07
2023-01-10T14:34:30.689Z,99782.96
2023-01-10T14:37:10.800Z,99785.76
2023-01-10T14:39:43.960Z,99787.19
2023-01-10T14:42:18.409Z,99786.64
2023-01-10T14:45:01.921Z,99783.67
2023-01-10T14:47:35.854Z,99779.46
2023-01-10T14:50:24.361Z,99777.67
2023-01-10T14:52:59.396Z,99784.59
2023-01-10T14:55:31.707Z,99787.54
2023-01-10T14:58:05.763Z,99790.50
2023-01-10T15:00:37.545Z,99794.17
2023-01-10T15:03:19.158Z,99789.44
2023-01-10T15:05:58.045Z,99786.64
2023-01-10T15:08:33.248Z,99787.85
2023-01-10T15:11:09.379Z,99789.59
2023-01-10T15:14:03.707Z,99792.37
2023-01-10T15:16:40.723Z,99800.36
2023-01-10T15:19:18.112Z,99808.52
2023-01-10T15:21:50.373Z,99806.95
2023-01-10T15:24:34.245Z,99807.64
2023-01-10T15:27:13.148Z,99815.11
2023-01-10T15:29:49.857Z,99814.06
2023-01-10T15:32:35.479Z,99816.48
2023-01-10T15:35:11.991Z,99821.17
2023-01-10T15:37:59.943Z,99826.91
2023-01-10T15:40:35.672Z,99832.25
2023-01-10T15:43:14.084Z,99833.45
2023-01-10T15:45:53.269Z,99836.94
2023-01-10T15:48:33.847Z,99834.86
2023-01-10T15:51:30.587Z,99831.37
2023-01-10T15:54:05.625Z,99834.33
2023-01-10T15:56:49.521Z,99835.23
2023-01-10T15:59:28.644Z,99847.04
2023-01-10T16:02:24.910Z,99853.82
2023-01-10T16:05:12.448Z,99857.30
2023-01-10T16:07:48.027Z,99858.86
2023-01-10T16:10:27.147Z,99859.90
2023-01-10T16:13:28.694Z,99866.86
2023-01-10T16:16:05.031Z,99869.11
2023-01-10T16:18:50.922Z,99868.23
2023-01-10T16:21:23.030Z,99871.88
2023-01-10T16:23:54.984Z,99877.98
2023-01-10T16:26:29.036Z,99881.64
2023-01-10T16:29:00.857Z,99884.26
2023-01-10T16:31:32.634Z,99887.04
2023-01-10T16:34:04.525Z,99892.10
2023-01-10T16:36:38.214Z,99894.67
2023-01-10T16:39:36.238Z,99891.19
2023-01-10T16:42:31.159Z,99891.54
2023-01-10T16:45:02.805Z,99893.79
2023-01-10T16:47:34.919Z,99891.52
2023-01-10T16:50:12.605Z,99893.25
2023-01-10T16:52:44.305Z,99896.04
2023-01-10T16:55:20.237Z,99901.10
2023-01-10T16:57:52.179Z,99898.32
2023-01-10T17:00:24.207Z,99895.16
2023-01-10T17:03:05.289Z,99899.52
2023-01-10T17:05:38.694Z,99900.20
2023-01-10T17:08:19.799Z,99894.66
2023-01-10T17:10:56.623Z,99895.50
2023-01-10T17:13:34.376Z,99905.06
2023-01-10T17:16:06.860Z,99910.48
2023-01-10T17:18:39.636Z,99906.63
2023-01-10T17:21:16.611Z,99913.79
2023-01-10T17:23:51.268Z,99912.91
2023-01-10T17:26:23.093Z,99919.03
2023-01-10T17:28:55.467Z,99920.06
2023-01-10T17:31:27.215Z,99915.04
2023-01-10T17:34:15.055Z,99910.52
2023-01-10T17:37:01.234Z,99913.13
2023-01-10T17:39:46.509Z,99910.71
2023-01-10T17:42:34.544Z,99907.73
2023-01-10T17:45:30.924Z,99903.02
2023-01-10T17:48:14.544Z,99903.55
2023-01-10T17:54:04.047Z,99906.20
2023-01-10T17:56:35.919Z,99901.19
2023-01-10T17:59:07.926Z,99905.05
2023-01-10T18:01:39.846Z,99900.89
2023-01-10T18:04:11.822Z,99904.73
2023-01-10T18:06:43.977Z,99908.23
2023-01-10T18:09:15.619Z,99910.36
2023-01-10T18:11:47.204Z,99911.24
2023-01-10T18:14:37.386Z,99912.81
2023-01-10T18:17:11.731Z,99918.23
2023-01-10T18:19:44.628Z,99917.02
2023-01-10T18:22:34.992Z,99913.16
2023-01-10T18:25:07.584Z,99909.86
2023-01-10T18:27:43.009Z,99912.32
2023-01-10T18:30:19.135Z,99905.92
2023-01-10T18:32:53.093Z,99910.83
2023-01-10T18:35:26.417Z,99919.90
2023-01-10T18:37:59.516Z,99915.92
2023-01-10T18:40:31.373Z,99915.11
2023-01-10T18:43:03.021Z,99911.50
2023-01-10T18:45:38.911Z,99920.05
2023-01-10T18:48:12.521Z,99919.36
2023-01-10T18:50:44.878Z,99919.38
2023-01-10T18:53:16.757Z,99920.27
2023-01-10T18:56:04.457Z,99918.23
2023-01-10T18:58:39.372Z,99916.59
2023-01-10T19:01:20.112Z,99910.94
2023-01-10T19:03:52.140Z,99911.92
2023-01-10T19:06:24.372Z,99913.58
2023-01-10T19:08:56.031Z,99915.41
2023-01-10T19:11:27.664Z,99916.39
2023-01-10T19:14:00.315Z,99919.98
2023-01-10T19:16:32.674Z,99927.95
2023-01-10T19:19:09.193Z,99922.84
2023-01-10T19:21:42.487Z,99925.88
2023-01-10T19:31:30.367Z,99921.04
2023-01-10T19:34:02.137Z,99928.05
2023-01-10T19:36:34.888Z,99933.84
2023-01-10T19:39:07.252Z,99938.54
2023-01-10T19:41:43.373Z,99935.88
2023-01-10T19:44:16.753Z,99935.17
2023-01-10T19:46:49.499Z,99935.52
2023-01-10T19:49:21.351Z,99932.78
2023-01-10T19:51:53.860Z,99941.02
2023-01-10T19:54:25.800Z,99937.82
2023-01-10T19:56:57.985Z,99940.13
2023-01-10T19:59:32.714Z,99945.61
2023-01-10T20:02:06.764Z,99948.12
2023-01-10T20:04:38.531Z,99952.02
2023-01-10T20:07:10.194Z,99954.85
2023-01-10T20:09:42.284Z,99958.20
2023-01-10T20:12:15.169Z,99956.00
2023-01-10T20:14:48.564Z,99959.00
2023-01-10T20:17:21.867Z,99960.62
2023-01-10T20:19:56.124Z,99963.11
2023-01-10T20:22:28.417Z,99966.79
2023-01-10T20:25:00.998Z,99965.44
2023-01-10T20:27:38.217Z,99970.40
2023-01-10T20:30:14.196Z,99965.10
2023-01-10T20:32:46.247Z,99964.30
2023-01-10T20:35:22.443Z,99966.25
2023-01-10T20:37:54.116Z,99967.33
2023-01-10T20:40:26.295Z,99973.63
2023-01-10T20:42:57.955Z,99973.65
2023-01-10T20:45:32.373Z,99969.16
2023-01-10T20:48:04.580Z,99957.95
2023-01-10T20:50:39.912Z,99961.46
2023-01-10T20:53:13.729Z,99963.53
2023-01-10T20:55:56.258Z,99967.90
2023-01-10T20:58:33.815Z,99964.38
2023-01-10T21:01:08.248Z,99959.80
2023-01-10T21:03:42.837Z,99963.77
2023-01-10T21:06:16.479Z,99965.82
2023-01-10T21:08:52.991Z,99962.60
2023-01-10T21:11:24.874Z,99963.02
2023-01-10T21:13:56.531Z,99963.14
2023-01-10T21:16:31.330Z,99966.41
2023-01-10T21:19:03.045Z,99960.49
2023-01-10T21:21:34.796Z,99958.77
2023-01-10T21:24:07.120Z,99956.33
2023-01-10T21:26:38.889Z,99956.88
2023-01-10T21:29:12.960Z,99953.44
2023-01-10T21:31:45.042Z,99951.73
2023-01-10T21:34:16.691Z,99951.04
2023-01-10T21:36:48.435Z,99949.66
2023-01-10T21:39:20.268Z,99957.84
2023-01-10T21:42:10.570Z,99957.97
2023-01-10T21:44:42.196Z,99967.02
2023-01-10T21:47:16.055Z,99963.36
2023-01-10T21:49:47.761Z,99962.83
2023-01-10T21:52:19.519Z,99968.02
2023-01-10T21:54:51.238Z,99968.19
2023-01-10T21:57:23.570Z,99967.66
2023-01-10T21:59:55.261Z,99960.54
2023-01-10T22:02:32.200Z,99961.57
2023-01-10T22:05:04.027Z,99966.10
2023-01-10T22:07:35.944Z,99965.41
2023-01-10T22:10:08.939Z,99962.48
2023-01-10T22:12:40.694Z,99967.36
2023-01-10T22:15:12.661Z,99971.02
2023-01-10T22:17:48.325Z,99972.76
2023-01-10T22:20:22.941Z,99973.95
2023-01-10T22:22:54.605Z,99973.26
2023-01-10T22:25:26.390Z,99965.61
2023-01-10T22:27:58.094Z,99962.30
2023-01-10T22:30:29.748Z,99960.56
2023-01-10T22:33:01.931Z,99958.64
2023-01-10T22:35:33.941Z,99952.88
2023-01-10T22:38:05.536Z,99950.42
2023-01-10T22:40:38.151Z,99953.36
2023-01-10T22:43:09.927Z,99957.70
2023-01-10T22:45:44.071Z,99958.73
2023-01-10T22:48:15.997Z,99950.23
2023-01-10T22:50:49.253Z,99946.92
2023-01-10T22:53:21.153Z,99936.52
2023-01-10T22:55:53.488Z,99937.39
2023-01-10T22:58:28.445Z,99935.34
2023-01-10T23:01:07.275Z,99931.20
2023-01-10T23:03:39.032Z,99928.98
2023-01-10T23:06:11.820Z,99925.52
2023-01-10T23:08:44.443Z,99927.61
2023-01-10T23:11:18.598Z,99927.98
2023-01-10T23:13:50.310Z,99927.15
2023-01-10T23:16:28.865Z,99925.59
2023-01-10T23:19:01.171Z,99926.64
2023-01-10T23:21:32.892Z,99927.67
2023-01-10T23:24:04.896Z,99925.92
2023-01-10T23:26:36.515Z,99923.99
2023-01-10T23:29:08.483Z,99924.83
2023-01-10T23:31:40.328Z,99922.89
2023-01-10T23:34:12.023Z,99921.99
2023-01-10T23:36:43.675Z,99923.71
2023-01-10T23:39:19.056Z,99926.13
2023-01-10T23:41:50.709Z,99931.49
2023-01-10T23:44:22.555Z,99928.02
2023-01-10T23:46:55.384Z,99932.16
2023-01-10T23:49:27.000Z,99931.45
2023-01-10T23:52:01.156Z,99933.16
2023-01-10T23:54:33.059Z,99930.87
2023-01-10T23:57:04.686Z,99928.25
2023-01-10T23:59:39.215Z,99927.53
